Data for 03/14/2010

Time Sea-Level Adjusted Pressure Absolute Pressure Temperature Relative Humidity Dew Point   
(mb) (inHg) (mb) (inHg) (C) (F) (%) (C) (F)
00:05 1021 30.15 851 25.13 -0.3 31.4 97 -0.7 30.8
00:10 1021 30.15 851 25.13 -0.4 31.3 98 -0.7 30.7
00:15 1021 30.15 851 25.13 -0.4 31.3 98 -0.6 30.8
00:20 1021 30.15 851 25.13 -0.3 31.4 98 -0.6 30.9
00:25 1022 30.18 851 25.13 -0.4 31.4 98 -0.6 30.9
00:30 1022 30.18 851 25.13 -0.4 31.2 98 -0.7 30.8
00:35 1022 30.18 851 25.13 -0.4 31.2 98 -0.7 30.8
00:40 1022 30.18 851 25.13 -0.4 31.2 98 -0.7 30.8
00:45 1022 30.18 851 25.13 -0.4 31.2 98 -0.7 30.7
00:50 1022 30.18 851 25.13 -0.5 31.2 98 -0.7 30.7
00:55 1022 30.18 851 25.13 -0.5 31.2 98 -0.7 30.7
01:00 1022 30.18 851 25.13 -0.5 31.2 98 -0.7 30.7
01:05 1022 30.18 851 25.13 -0.5 31.1 97 -0.9 30.4
01:10 1022 30.18 851 25.13 -0.5 31.1 98 -0.9 30.4
01:15 1022 30.18 851 25.13 -0.5 31 97 -0.9 30.3
01:20 1022 30.18 851 25.13 -0.6 31 97 -1 30.3
01:25 1022 30.18 851 25.13 -0.6 31 97 -0.9 30.3
01:30 1022 30.18 851 25.13 -0.5 31 97 -0.9 30.3
01:35 1022 30.18 851 25.13 -0.5 31 97 -1 30.2
01:40 1022 30.18 851 25.13 -0.6 31 97 -1 30.2
01:45 1022 30.18 851 25.13 -0.6 30.9 97 -1.1 30.1
01:50 1022 30.18 851 25.13 -0.6 30.9 97 -1.1 30
01:55 1022 30.18 851 25.13 -0.6 30.8 96 -1.2 29.9
02:00 1022 30.18 852 25.16 -0.6 30.9 96 -1.2 29.9
02:05 1022 30.18 852 25.16 -0.6 30.9 96 -1.2 29.8
02:10 1022 30.18 852 25.16 -0.7 30.8 95 -1.3 29.6
02:15 1022 30.18 852 25.16 -0.7 30.8 95 -1.4 29.5
02:20 1022 30.18 852 25.16 -0.7 30.8 95 -1.4 29.5
02:25 1022 30.18 852 25.16 -0.7 30.8 95 -1.4 29.4
02:30 1022 30.18 852 25.16 -0.7 30.7 94 -1.5 29.3
02:35 1023 30.21 852 25.16 -0.8 30.6 94 -1.6 29.1
02:40 1023 30.21 852 25.16 -0.9 30.4 94 -1.7 29
02:45 1023 30.21 852 25.16 -0.9 30.4 94 -1.7 29
02:50 1023 30.21 852 25.16 -0.9 30.4 94 -1.7 28.9
02:55 1023 30.21 852 25.16 -1 30.2 94 -1.8 28.8
03:00 1023 30.21 852 25.16 -1 30.2 94 -1.8 28.7
03:05 1023 30.21 852 25.16 -1.1 30.1 94 -1.9 28.7
03:10 1023 30.21 852 25.16 -1.1 30 94 -1.9 28.6
03:15 1023 30.21 852 25.16 -1.1 29.9 95 -1.9 28.6
03:20 1023 30.21 852 25.16 -1.1 30 94 -1.9 28.6
03:25 1023 30.21 852 25.16 -1.1 30.1 94 -1.9 28.6
03:30 1023 30.21 852 25.16 -1.1 30 94 -1.9 28.5
03:35 1023 30.21 852 25.16 -1.1 30 94 -1.9 28.5
03:40 1023 30.21 852 25.16 -1.2 29.9 94 -2 28.4
03:45 1023 30.21 852 25.16 -1.2 29.9 94 -2 28.4
03:50 1023 30.21 852 25.16 -1.2 29.9 94 -2 28.4
03:55 1023 30.21 852 25.16 -1.2 29.9 94 -2 28.4
04:00 1023 30.21 852 25.16 -1.2 29.9 94 -2.1 28.3
04:05 1023 30.21 852 25.16 -1.2 29.9 94 -2.1 28.3
04:10 1023 30.21 853 25.19 -1.1 30 93 -2.1 28.2
04:15 1023 30.21 853 25.19 -1.2 29.9 93 -2.1 28.2
04:20 1023 30.21 853 25.19 -1.2 29.9 93 -2.2 28.1
04:25 1024 30.24 853 25.19 -1.1 30.1 92 -2.2 28.1
04:30 1024 30.24 853 25.19 -1.1 30 93 -2.2 28.1
04:35 1024 30.24 853 25.19 -1.2 29.9 93 -2.2 28
04:40 1024 30.24 853 25.19 -1.1 30 93 -2.2 28
04:45 1024 30.24 853 25.19 -1.2 29.9 93 -2.2 28
04:50 1024 30.24 853 25.19 -1.2 29.9 93 -2.2 28
04:55 1024 30.24 853 25.19 -1.2 29.9 93 -2.2 28
05:00 1024 30.24 853 25.19 -1.2 29.8 93 -2.3 27.9
05:05 1024 30.24 853 25.19 -1.2 29.9 92 -2.3 27.9
05:10 1024 30.24 853 25.19 -1.2 29.9 92 -2.3 27.9
05:15 1024 30.24 853 25.19 -1.2 29.9 92 -2.3 27.9
05:20 1024 30.24 853 25.19 -1.2 29.9 92 -2.3 27.9
05:25 1024 30.24 853 25.19 -1.2 29.9 92 -2.3 27.9
05:30 1024 30.24 853 25.19 -1.1 29.9 92 -2.3 27.8
05:35 1024 30.24 853 25.19 -1 30.1 92 -2.2 28
05:40 1024 30.24 853 25.19 -1 30.2 91 -2.2 28
05:45 1024 30.24 853 25.19 -1 30.3 91 -2.3 27.9
05:50 1024 30.24 853 25.19 -1 30.3 91 -2.3 27.9
05:55 1024 30.24 853 25.19 -1 30.2 91 -2.3 27.9
06:00 1024 30.24 853 25.19 -1 30.2 91 -2.3 27.9
06:05 1024 30.24 853 25.19 -1 30.1 91 -2.3 27.8
06:10 1024 30.24 853 25.19 -1 30.2 91 -2.3 27.8
06:15 1024 30.24 853 25.19 -1 30.2 91 -2.3 27.9
06:20 1024 30.24 854 25.22 -1 30.2 91 -2.4 27.8
06:25 1024 30.24 854 25.22 -1 30.2 91 -2.3 27.8
06:30 1025 30.27 854 25.22 -1 30.1 91 -2.3 27.8
06:35 1025 30.27 854 25.22 -1.1 30 92 -2.3 27.9
06:40 1025 30.27 854 25.22 -1.2 29.8 93 -2.2 28
06:45 1025 30.27 854 25.22 -1.3 29.6 93 -2.3 27.9
06:50 1025 30.27 854 25.22 -1.3 29.6 94 -2.2 28
06:55 1025 30.27 854 25.22 -1.3 29.6 94 -2.2 28.1
07:00 1025 30.27 854 25.22 -1.4 29.4 94 -2.3 27.9
07:05 1025 30.27 854 25.22 -1.4 29.5 94 -2.3 27.9
07:10 1025 30.27 854 25.22 -1.3 29.6 93 -2.2 28
07:15 1025 30.27 854 25.22 -1.2 29.8 93 -2.3 27.9
07:20 1025 30.27 854 25.22 -1.2 29.8 93 -2.3 27.9
07:25 1025 30.27 854 25.22 -1.2 29.9 92 -2.3 27.8
07:30 1025 30.27 854 25.22 -1.2 29.9 92 -2.3 27.9
07:35 1025 30.27 854 25.22 -1 30.2 92 -2.1 28.2
07:40 1025 30.27 854 25.22 -0.8 30.5 89 -2.4 27.7
07:45 1025 30.27 854 25.22 -0.8 30.5 89 -2.5 27.5
07:50 1025 30.27 854 25.22 -0.7 30.8 88 -2.4 27.8
07:55 1025 30.27 854 25.22 -0.5 31.2 86 -2.5 27.6
08:00 1025 30.27 854 25.22 -0.3 31.4 85 -2.5 27.5
08:05 1025 30.27 854 25.22 -0.3 31.5 85 -2.6 27.4
08:10 1025 30.27 855 25.25 0.1 32.3 81 -2.7 27.1
08:15 1025 30.27 855 25.25 0.6 33.1 80 -2.5 27.6
08:20 1025 30.27 855 25.25 0.7 33.2 81 -2.2 28
08:25 1025 30.27 855 25.25 1 33.7 79 -2.3 27.9
08:30 1026 30.3 855 25.25 1.5 34.8 77 -2 28.3
08:35 1026 30.3 855 25.25 1.8 35.2 75 -2.2 28.1
08:40 1026 30.3 855 25.25 1.6 34.9 75 -2.3 27.9
08:45 1026 30.3 855 25.25 1.4 34.5 75 -2.7 27.2
08:50 1026 30.3 855 25.25 1.4 34.6 75 -2.5 27.5
08:55 1026 30.3 855 25.25 1.8 35.2 74 -2.4 27.8
09:00 1026 30.3 855 25.25 1.2 34.2 75 -2.7 27.1
09:05 1026 30.3 855 25.25 1.6 34.9 74 -2.6 27.4
09:10 1026 30.3 855 25.25 2.5 36.6 70 -2.4 27.8
09:15 1026 30.3 855 25.25 2.7 36.9 72 -1.9 28.6
09:20 1026 30.3 855 25.25 2.6 36.7 71 -2.1 28.2
09:25 1026 30.3 855 25.25 2.6 36.6 73 -1.8 28.8
09:30 1026 30.3 855 25.25 1.5 34.7 76 -2.3 27.9
09:35 1026 30.3 855 25.25 1.6 34.8 75 -2.3 27.8
09:40 1026 30.3 855 25.25 1.8 35.2 75 -2.2 28
09:45 1026 30.3 855 25.25 1.8 35.2 76 -2 28.3
09:50 1026 30.3 855 25.25 1.6 34.9 75 -2.3 27.8
09:55 1026 30.3 855 25.25 1.4 34.4 76 -2.4 27.8
10:00 1026 30.3 855 25.25 1.3 34.3 77 -2.3 27.8
10:05 1026 30.3 855 25.25 1.3 34.3 76 -2.4 27.6
10:10 1026 30.3 855 25.25 1.5 34.8 74 -2.6 27.3
10:15 1026 30.3 855 25.25 1.9 35.3 74 -2.2 28
10:20 1026 30.3 855 25.25 2.5 36.5 72 -2 28.5
10:25 1026 30.3 855 25.25 2.4 36.2 73 -2.1 28.3
10:30 1026 30.3 855 25.25 2.2 35.9 75 -1.8 28.8
10:35 1026 30.3 855 25.25 2.7 36.8 72 -1.8 28.8
10:40 1026 30.3 855 25.25 2.8 37.1 72 -1.8 28.8
10:45 1026 30.3 855 25.25 2.9 37.2 70 -2 28.4
10:50 1026 30.3 855 25.25 2.9 37.2 70 -2 28.4
10:55 1026 30.3 855 25.25 3.1 37.5 69 -2.2 28.1
11:00 1026 30.3 855 25.25 3.3 38 68 -1.9 28.5
11:05 1026 30.3 855 25.25 3.6 38.4 72 -1.1 30
11:10 1026 30.3 855 25.25 3.1 37.6 69 -2 28.4
11:15 1026 30.3 855 25.25 3.1 37.6 69 -2.1 28.2
11:20 1026 30.3 855 25.25 3.1 37.6 71 -1.7 28.9
11:25 1026 30.3 855 25.25 4.1 39.4 65 -2 28.5
11:30 1026 30.3 855 25.25 4.1 39.3 67 -1.5 29.3
11:35 1026 30.3 855 25.25 3.6 38.4 70 -1.4 29.5
11:40 1026 30.3 855 25.25 3.8 38.8 68 -1.5 29.2
11:45 1026 30.3 855 25.25 3.9 39 68 -1.4 29.4
11:50 1026 30.3 855 25.25 3.9 39.1 70 -1 30.3
11:55 1026 30.3 855 25.25 3.9 39 70 -1.1 30.1
12:00 1026 30.3 855 25.25 3.8 38.9 69 -1.4 29.5
12:05 1026 30.3 855 25.25 4 39.1 68 -1.4 29.5
12:10 1026 30.3 855 25.25 2.6 36.6 73 -1.9 28.6
12:15 1026 30.3 855 25.25 2.6 36.6 75 -1.5 29.3
12:20 1026 30.3 855 25.25 3 37.4 72 -1.5 29.3
12:25 1026 30.3 855 25.25 2.7 36.9 72 -1.9 28.5
12:30 1026 30.3 855 25.25 3.1 37.5 71 -1.6 29.1
12:35 1026 30.3 855 25.25 3.2 37.7 71 -1.6 29.1
12:40 1026 30.3 855 25.25 3.8 38.9 67 -1.7 28.9
12:45 1026 30.3 855 25.25 4.4 40 67 -1.2 29.8
12:50 1026 30.3 855 25.25 4.6 40.2 67 -1 30.3
12:55 1026 30.3 855 25.25 5.2 41.4 63 -1.3 29.7
13:00 1026 30.3 855 25.25 4.9 40.8 69 -0.2 31.6
13:05 1026 30.3 855 25.25 4.9 40.9 64 -1.3 29.6
13:10 1026 30.3 855 25.25 5 40.9 69 -0.2 31.7
13:15 1026 30.3 855 25.25 4.8 40.7 62 -1.8 28.7
13:20 1025 30.27 855 25.25 5.1 41.2 64 -1.1 30.1
13:25 1025 30.27 855 25.25 4.6 40.3 69 -0.5 31.1
13:30 1025 30.27 855 25.25 3.6 38.5 69 -1.5 29.4
13:35 1025 30.27 855 25.25 3.3 38 70 -1.5 29.2
13:40 1025 30.27 855 25.25 4 39.2 67 -1.7 29
13:45 1025 30.27 855 25.25 4.3 39.7 67 -1.3 29.7
13:50 1025 30.27 854 25.22 3.9 39 68 -1.5 29.3
13:55 1025 30.27 854 25.22 3.9 39.1 70 -1.1 30
14:00 1025 30.27 854 25.22 4.3 39.7 66 -1.5 29.3
14:05 1025 30.27 854 25.22 4.7 40.5 62 -2 28.4
14:10 1025 30.27 854 25.22 5.5 42 61 -1.4 29.4
14:15 1025 30.27 854 25.22 5.5 42 68 0 32.1
14:20 1025 30.27 854 25.22 5 41 68 -0.4 31.3
14:25 1025 30.27 854 25.22 5.4 41.7 62 -1.3 29.7
14:30 1025 30.27 854 25.22 5.4 41.8 62 -1.3 29.6
14:35 1025 30.27 854 25.22 5.4 41.7 63 -1.2 29.9
14:40 1025 30.27 854 25.22 5.1 41.2 62 -1.6 29.2
14:45 1025 30.27 854 25.22 5.1 41.1 64 -1.2 29.9
14:50 1025 30.27 854 25.22 4.7 40.5 63 -1.6 29.1
14:55 1025 30.27 854 25.22 5.1 41.3 62 -1.6 29.2
15:00 1025 30.27 854 25.22 5.8 42.5 56 -2.3 27.8
15:05 1025 30.27 854 25.22 6.4 43.6 51 -3 26.6
15:10 1025 30.27 854 25.22 5.9 42.6 55 -2.5 27.4
15:15 1025 30.27 854 25.22 6.1 43 53 -2.7 27.1
15:20 1025 30.27 854 25.22 5.8 42.5 60 -1.2 29.8
15:25 1025 30.27 854 25.22 5.1 41.2 62 -1.6 29.1
15:30 1025 30.27 854 25.22 4.9 40.9 62 -1.8 28.7
15:35 1025 30.27 854 25.22 5 41 59 -2.4 27.6
15:40 1025 30.27 854 25.22 4.9 40.8 61 -2.1 28.3
15:45 1025 30.27 854 25.22 4.7 40.5 63 -1.7 28.9
15:50 1025 30.27 854 25.22 4.1 39.4 66 -1.8 28.8
15:55 1025 30.27 854 25.22 4.3 39.8 64 -1.9 28.5
16:00 1025 30.27 854 25.22 4.3 39.8 63 -2.1 28.2
16:05 1025 30.27 854 25.22 4.3 39.7 63 -2.1 28.2
16:10 1025 30.27 854 25.22 4.3 39.8 61 -2.6 27.4
16:15 1025 30.27 854 25.22 4.7 40.4 65 -1.4 29.4
16:20 1025 30.27 854 25.22 4.5 40 64 -1.7 29
16:25 1025 30.27 854 25.22 4.3 39.7 64 -1.9 28.6
16:30 1025 30.27 854 25.22 4.4 39.9 63 -2 28.4
16:35 1025 30.27 854 25.22 4.5 40 62 -2.1 28.2
16:40 1025 30.27 854 25.22 4.7 40.4 62 -2 28.4
16:45 1025 30.27 854 25.22 4.8 40.6 63 -1.6 29.1
16:50 1025 30.27 854 25.22 4.6 40.3 62 -2.1 28.3
16:55 1025 30.27 854 25.22 4.4 40 63 -1.9 28.5
17:00 1025 30.27 854 25.22 4.2 39.6 64 -2 28.4
17:05 1025 30.27 854 25.22 4 39.2 65 -1.9 28.6
17:10 1025 30.27 854 25.22 4.3 39.7 62 -2.3 27.9
17:15 1025 30.27 854 25.22 4.4 39.9 64 -1.7 28.9
17:20 1025 30.27 854 25.22 3.8 38.9 65 -2.1 28.1
17:25 1025 30.27 854 25.22 4 39.3 65 -2 28.5
17:30 1025 30.27 854 25.22 3.8 38.8 66 -2 28.4
17:35 1025 30.27 854 25.22 3.2 37.7 68 -2.1 28.2
17:40 1025 30.27 854 25.22 3.3 37.9 68 -2.1 28.3
17:45 1025 30.27 854 25.22 3.2 37.7 67 -2.3 27.9
17:50 1025 30.27 855 25.25 3.2 37.7 68 -2.2 28.1
17:55 1025 30.27 855 25.25 2.9 37.2 69 -2.1 28.1
18:00 1025 30.27 855 25.25 2.5 36.4 71 -2.3 27.9
18:05 1025 30.27 855 25.25 2.5 36.4 70 -2.4 27.7
18:10 1025 30.27 855 25.25 2.7 36.9 70 -2.2 28
18:15 1025 30.27 855 25.25 2.8 37 69 -2.4 27.7
18:20 1025 30.27 855 25.25 2.8 37.1 69 -2.3 27.8
18:25 1026 30.3 855 25.25 2.6 36.7 70 -2.3 27.9
18:30 1026 30.3 855 25.25 2.5 36.6 70 -2.3 27.9
18:35 1026 30.3 855 25.25 2.5 36.4 72 -2.1 28.1
18:40 1026 30.3 855 25.25 2.4 36.3 71 -2.3 27.9
18:45 1026 30.3 855 25.25 2.5 36.4 72 -2.1 28.1
18:50 1026 30.3 855 25.25 2.1 35.8 73 -2.2 28.1
18:55 1026 30.3 855 25.25 1.8 35.3 75 -2.2 28
19:00 1026 30.3 855 25.25 1.7 35.1 75 -2.2 28
19:05 1026 30.3 855 25.25 1.6 34.9 76 -2.2 28
19:10 1026 30.3 855 25.25 1.3 34.4 77 -2.3 27.9
19:15 1026 30.3 855 25.25 1.1 34 81 -1.9 28.6
19:20 1026 30.3 855 25.25 1 33.7 80 -2.1 28.2
19:25 1026 30.3 855 25.25 1 33.7 78 -2.4 27.6
19:30 1026 30.3 855 25.25 0.9 33.6 78 -2.5 27.4
19:35 1026 30.3 855 25.25 1.1 34 74 -3.1 26.5
19:40 1026 30.3 855 25.25 1.4 34.5 72 -3.1 26.5
19:45 1026 30.3 855 25.25 1.5 34.6 69 -3.5 25.7
19:50 1026 30.3 855 25.25 1.9 35.4 65 -4 24.8
19:55 1026 30.3 855 25.25 2.3 36.1 63 -4.1 24.6
20:00 1026 30.3 855 25.25 2.6 36.8 61 -4.2 24.5
20:05 1026 30.3 855 25.25 2.8 37 60 -4.3 24.3
20:10 1026 30.3 855 25.25 2.8 37.1 59 -4.4 24.1
20:15 1026 30.3 855 25.25 2.9 37.1 58 -4.5 23.8
20:20 1026 30.3 855 25.25 3 37.4 58 -4.6 23.7
20:25 1026 30.3 855 25.25 3 37.3 58 -4.6 23.8
20:30 1026 30.3 855 25.25 2.9 37.3 57 -4.7 23.5
20:35 1026 30.3 856 25.28 2.9 37.2 57 -4.7 23.5
20:40 1026 30.3 856 25.28 2.9 37.2 57 -4.8 23.3
20:45 1026 30.3 856 25.28 2.8 37.1 57 -4.9 23.1
20:50 1026 30.3 856 25.28 2.8 37.1 57 -4.9 23.2
20:55 1026 30.3 856 25.28 2.9 37.1 56 -5.1 22.9
21:00 1026 30.3 856 25.28 2.9 37.2 56 -5.1 22.8
21:05 1026 30.3 856 25.28 2.6 36.6 61 -4.3 24.3
21:10 1027 30.33 856 25.28 1.8 35.2 66 -4 24.8
21:15 1027 30.33 856 25.28 0.8 33.5 70 -4.1 24.6
21:20 1027 30.33 856 25.28 0.5 33 70 -4.3 24.2
21:25 1027 30.33 856 25.28 0.3 32.5 73 -4.1 24.7
21:30 1027 30.33 856 25.28 0 32 74 -4.1 24.7
21:35 1027 30.33 856 25.28 -0.1 31.8 75 -4.1 24.6
21:40 1027 30.33 856 25.28 -0.1 31.8 75 -4 24.8
21:45 1027 30.33 856 25.28 -0 32 76 -3.7 25.4
21:50 1027 30.33 856 25.28 0 32 76 -3.7 25.3
21:55 1027 30.33 856 25.28 0 32.1 77 -3.5 25.7
22:00 1027 30.33 856 25.28 -0 32 78 -3.4 25.8
22:05 1027 30.33 856 25.28 -0 32 78 -3.4 26
22:10 1027 30.33 856 25.28 -0 31.9 79 -3.3 26
22:15 1027 30.33 856 25.28 0.1 32.1 76 -3.6 25.5
22:20 1027 30.33 856 25.28 0.2 32.4 75 -3.8 25.2
22:25 1027 30.33 856 25.28 0.4 32.7 74 -3.7 25.4
22:30 1027 30.33 856 25.28 0.5 32.9 75 -3.5 25.7
22:35 1027 30.33 856 25.28 0.6 33.1 74 -3.5 25.7
22:40 1027 30.33 856 25.28 0.7 33.2 75 -3.2 26.2
22:45 1027 30.33 856 25.28 0.3 32.6 74 -3.7 25.4
22:50 1027 30.33 856 25.28 0.2 32.4 74 -3.8 25.1
22:55 1027 30.33 856 25.28 0.2 32.3 74 -3.9 25
23:00 1027 30.33 856 25.28 0 32 74 -4 24.7
23:05 1027 30.33 856 25.28 0.2 32.3 73 -4.2 24.5
23:10 1027 30.33 856 25.28 0.4 32.8 72 -4 24.8
23:15 1027 30.33 856 25.28 0.4 32.8 73 -3.8 25.1
23:20 1027 30.33 856 25.28 0.3 32.5 74 -3.9 25
23:25 1027 30.33 856 25.28 0.1 32.3 72 -4.3 24.2
23:30 1027 30.33 856 25.28 0.3 32.5 72 -4.2 24.4
23:35 1027 30.33 856 25.28 0.2 32.4 73 -4 24.8
23:40 1027 30.33 856 25.28 0.4 32.6 71 -4.2 24.4
23:45 1027 30.33 856 25.28 0.8 33.4 71 -3.8 25.1
23:50 1027 30.33 856 25.28 0.8 33.4 71 -3.9 25.1
23:55 1027 30.33 856 25.28 0.6 33.2 70 -4.2 24.4
24:00 1027 30.33 856 25.28 0.5 33 71 -4.1 24.6